createdAt,value
2023-05-20T00:02:13.154Z,5.00
2023-05-20T00:04:41.620Z,6.00
2023-05-20T00:07:08.397Z,4.67
2023-05-20T00:09:38.657Z,5.00
2023-05-20T00:12:05.719Z,5.50
2023-05-20T00:14:32.362Z,5.00
2023-05-20T00:17:00.311Z,4.00
2023-05-20T00:19:27.163Z,4.00
2023-05-20T00:21:53.877Z,5.50
2023-05-20T00:24:21.702Z,4.00
2023-05-20T00:26:48.321Z,4.00
2023-05-20T00:29:15.368Z,4.00
2023-05-20T00:31:43.466Z,4.00
2023-05-20T00:34:10.418Z,4.00
2023-05-20T00:36:37.078Z,5.00
2023-05-20T00:39:04.975Z,6.00
2023-05-20T00:41:32.086Z,5.00
2023-05-20T00:43:58.803Z,5.00
2023-05-20T00:46:27.153Z,5.00
2023-05-20T00:48:54.001Z,5.00
2023-05-20T00:51:21.221Z,4.00
2023-05-20T00:53:49.904Z,4.50
2023-05-20T00:56:16.968Z,4.00
2023-05-20T00:58:43.838Z,4.25
2023-05-20T01:01:12.025Z,3.50
2023-05-20T01:03:39.531Z,5.00
2023-05-20T01:06:06.311Z,4.25
2023-05-20T01:08:35.116Z,5.00
2023-05-20T01:11:08.389Z,6.00
2023-05-20T01:13:43.306Z,5.00
2023-05-20T01:16:12.483Z,4.00
2023-05-20T01:18:40.385Z,5.00
2023-05-20T01:21:07.873Z,4.00
2023-05-20T01:23:41.834Z,3.00
2023-05-20T01:26:09.776Z,5.00
2023-05-20T01:28:38.849Z,4.00
2023-05-20T01:31:08.353Z,4.00
2023-05-20T01:33:36.654Z,5.00
2023-05-20T01:36:03.428Z,5.00
2023-05-20T01:38:29.984Z,3.67
2023-05-20T01:40:58.004Z,5.50
2023-05-20T01:43:25.194Z,3.00
2023-05-20T01:45:51.902Z,4.00
2023-05-20T01:48:19.986Z,5.00
2023-05-20T01:50:46.689Z,4.33
2023-05-20T01:53:13.453Z,4.50
2023-05-20T01:55:43.271Z,4.00
2023-05-20T01:58:10.241Z,5.00
2023-05-20T02:00:37.312Z,5.00
2023-05-20T02:03:05.385Z,2.50
2023-05-20T02:05:32.380Z,5.00
2023-05-20T02:07:59.364Z,4.67
2023-05-20T02:10:27.633Z,4.00
2023-05-20T02:12:54.201Z,4.00
2023-05-20T02:15:20.928Z,5.00
2023-05-20T02:17:48.996Z,6.00
2023-05-20T02:20:15.795Z,4.00
2023-05-20T02:22:42.557Z,5.50
2023-05-20T02:25:11.739Z,5.00
2023-05-20T02:27:40.007Z,4.00
2023-05-20T02:30:07.860Z,4.00
2023-05-20T02:32:37.538Z,5.00
2023-05-20T02:35:04.611Z,4.00
2023-05-20T02:37:32.011Z,4.67
2023-05-20T02:39:59.900Z,5.00
2023-05-20T02:42:26.923Z,4.00
2023-05-20T02:44:56.025Z,4.00
2023-05-20T02:47:25.023Z,5.00
2023-05-20T02:49:51.852Z,4.33
2023-05-20T02:52:18.886Z,4.00
2023-05-20T02:54:46.899Z,6.00
2023-05-20T02:57:13.954Z,4.00
2023-05-20T02:59:41.423Z,5.00
2023-05-20T03:02:09.379Z,4.00
2023-05-20T03:04:38.287Z,4.00
2023-05-20T03:07:06.922Z,5.00
2023-05-20T03:09:35.113Z,5.00
2023-05-20T03:12:01.668Z,4.00
2023-05-20T03:14:28.713Z,3.67
2023-05-20T03:16:56.970Z,4.00
2023-05-20T03:19:24.085Z,3.00
2023-05-20T03:21:50.876Z,5.00
2023-05-20T03:24:18.892Z,4.00
2023-05-20T03:26:47.432Z,4.00
2023-05-20T03:29:14.197Z,4.00
2023-05-20T03:31:42.246Z,5.00
2023-05-20T03:34:08.943Z,3.00
2023-05-20T03:36:36.197Z,4.00
2023-05-20T03:39:04.776Z,4.50
2023-05-20T03:41:32.245Z,5.00
2023-05-20T03:43:59.024Z,4.33
2023-05-20T03:46:28.056Z,3.50
2023-05-20T03:48:54.656Z,4.00
2023-05-20T03:51:22.467Z,0.00
2023-05-20T03:53:50.951Z,4.00
2023-05-20T03:56:17.630Z,5.00
2023-05-20T03:58:44.984Z,5.00
2023-05-20T04:01:13.686Z,3.50
2023-05-20T04:03:43.915Z,4.00
2023-05-20T04:06:13.342Z,3.00
2023-05-20T04:08:41.872Z,3.00
2023-05-20T04:11:11.425Z,5.00
2023-05-20T04:13:38.035Z,3.00
2023-05-20T04:16:05.151Z,4.00
2023-05-20T04:18:33.033Z,4.00
2023-05-20T04:21:00.998Z,5.00
2023-05-20T04:23:27.755Z,5.00
2023-05-20T04:26:01.542Z,4.00
2023-05-20T04:28:32.136Z,4.00
2023-05-20T04:31:02.116Z,3.33
2023-05-20T04:33:32.236Z,4.50
2023-05-20T04:36:00.776Z,4.25
2023-05-20T04:38:30.271Z,4.00
2023-05-20T04:40:57.838Z,4.00
2023-05-20T04:43:25.315Z,4.50
2023-05-20T04:45:53.526Z,4.00
2023-05-20T04:48:21.601Z,4.00
2023-05-20T04:50:48.928Z,3.75
2023-05-20T04:53:17.914Z,2.00
2023-05-20T04:55:48.682Z,4.00
2023-05-20T04:58:17.264Z,4.00
2023-05-20T05:00:44.379Z,3.00
2023-05-20T05:03:13.858Z,4.00
2023-05-20T05:05:42.101Z,4.00
2023-05-20T05:08:09.095Z,4.00
2023-05-20T05:10:41.249Z,4.00
2023-05-20T05:13:08.829Z,4.00
2023-05-20T05:15:35.679Z,4.00
2023-05-20T05:18:03.905Z,5.00
2023-05-20T05:20:30.928Z,3.67
2023-05-20T05:22:57.802Z,4.33
2023-05-20T05:25:26.972Z,5.00
2023-05-20T05:27:54.822Z,5.00
2023-05-20T05:30:21.727Z,4.00
2023-05-20T05:32:50.661Z,3.50
2023-05-20T05:35:17.867Z,4.00
2023-05-20T05:37:44.922Z,5.00
2023-05-20T05:40:13.261Z,3.00
2023-05-20T05:42:40.153Z,5.00
2023-05-20T05:45:08.002Z,4.00
2023-05-20T05:47:36.765Z,3.00
2023-05-20T05:50:04.374Z,4.00
2023-05-20T05:52:35.549Z,4.75
2023-05-20T05:55:02.762Z,4.00
2023-05-20T05:57:30.494Z,4.00
2023-05-20T05:59:59.361Z,3.50
2023-05-20T06:02:27.043Z,5.00
2023-05-20T06:04:54.116Z,5.00
2023-05-20T06:07:22.647Z,4.50
2023-05-20T06:09:49.670Z,4.00
2023-05-20T06:12:16.779Z,4.75
2023-05-20T06:14:45.055Z,3.50
2023-05-20T06:17:11.864Z,4.00
2023-05-20T06:19:38.661Z,4.25
2023-05-20T06:22:06.697Z,4.00
2023-05-20T06:24:34.130Z,4.00
2023-05-20T06:27:02.801Z,5.00
2023-05-20T06:29:30.920Z,3.00
2023-05-20T06:31:59.160Z,3.00
2023-05-20T06:34:26.384Z,4.00
2023-05-20T06:36:55.468Z,5.00
2023-05-20T06:39:22.471Z,3.00
2023-05-20T06:41:51.422Z,5.00
2023-05-20T06:44:29.324Z,4.00
2023-05-20T06:47:01.095Z,4.00
2023-05-20T06:49:29.446Z,4.00
2023-05-20T06:51:56.196Z,4.00
2023-05-20T06:54:22.855Z,4.00
2023-05-20T06:56:51.036Z,4.50
2023-05-20T06:59:17.797Z,4.00
2023-05-20T07:01:44.460Z,5.00
2023-05-20T07:04:15.610Z,3.00
2023-05-20T07:06:42.771Z,4.00
2023-05-20T07:09:09.688Z,4.00
2023-05-20T07:11:37.794Z,4.50
2023-05-20T07:14:05.086Z,4.00
2023-05-20T07:16:36.448Z,4.00
2023-05-20T07:19:03.756Z,3.00
2023-05-20T07:21:30.914Z,4.25
2023-05-20T07:24:35.011Z,4.00
2023-05-20T07:27:04.297Z,4.67
2023-05-20T07:29:32.238Z,4.00
2023-05-20T07:31:59.642Z,4.00
2023-05-20T07:34:26.596Z,5.00
2023-05-20T07:36:54.822Z,4.50
2023-05-20T07:39:21.947Z,5.00
2023-05-20T07:41:49.326Z,4.67
2023-05-20T07:44:18.562Z,3.50
2023-05-20T07:46:48.033Z,5.00
2023-05-20T07:49:17.087Z,5.67
2023-05-20T07:51:45.750Z,5.00
2023-05-20T07:54:15.688Z,4.50
2023-05-20T07:56:44.129Z,3.50
2023-05-20T07:59:13.720Z,7.00
2023-05-20T08:01:45.315Z,5.33
2023-05-20T08:04:15.456Z,4.00
2023-05-20T08:06:43.880Z,6.00
2023-05-20T08:09:15.268Z,5.00
2023-05-20T08:11:47.383Z,4.33
2023-05-20T08:14:16.520Z,5.00
2023-05-20T08:16:45.165Z,6.00
2023-05-20T08:19:14.131Z,5.00
2023-05-20T08:21:40.822Z,4.00
2023-05-20T08:24:07.443Z,5.00
2023-05-20T08:26:36.160Z,4.50
2023-05-20T08:29:03.147Z,6.00
2023-05-20T08:31:29.875Z,6.00
2023-05-20T08:33:58.869Z,4.00
2023-05-20T08:36:25.524Z,6.00
2023-05-20T08:38:52.201Z,4.00
2023-05-20T08:41:22.225Z,4.00
2023-05-20T08:43:49.390Z,5.50
2023-05-20T08:46:18.173Z,5.00
2023-05-20T08:48:46.595Z,4.00
2023-05-20T08:51:13.153Z,5.00
2023-05-20T08:53:40.150Z,4.00
2023-05-20T08:56:08.047Z,5.50
2023-05-20T08:58:34.871Z,5.00
2023-05-20T09:01:01.624Z,4.75
2023-05-20T09:03:29.881Z,5.00
2023-05-20T09:06:08.801Z,5.00
2023-05-20T09:08:36.681Z,5.00
2023-05-20T09:11:03.476Z,5.00
2023-05-20T09:13:31.908Z,5.67
2023-05-20T09:16:00.925Z,5.00
2023-05-20T09:18:28.736Z,4.33
2023-05-20T09:20:55.905Z,5.00
2023-05-20T09:23:27.347Z,5.00
2023-05-20T09:25:53.980Z,5.00
2023-05-20T09:28:24.551Z,4.00
2023-05-20T09:30:59.305Z,4.33
2023-05-20T09:33:31.136Z,5.00
2023-05-20T09:36:04.337Z,6.00
2023-05-20T09:38:37.204Z,6.00
2023-05-20T09:41:12.336Z,5.00
2023-05-20T09:43:40.401Z,6.00
2023-05-20T09:46:07.554Z,5.00
2023-05-20T09:48:37.474Z,5.00
2023-05-20T09:51:06.357Z,6.00
2023-05-20T09:53:33.017Z,6.00
2023-05-20T09:55:59.740Z,5.50
2023-05-20T09:58:28.209Z,5.00
2023-05-20T10:00:55.223Z,4.50
2023-05-20T10:03:22.584Z,5.00
2023-05-20T10:06:01.381Z,5.50
2023-05-20T10:09:14.140Z,5.50
2023-05-20T10:12:11.105Z,4.00
2023-05-20T10:15:02.852Z,5.00
2023-05-20T10:17:48.233Z,4.00
2023-05-20T10:20:16.112Z,5.00
2023-05-20T10:22:44.797Z,4.00
2023-05-20T10:25:24.044Z,5.00
2023-05-20T10:27:52.313Z,5.00
2023-05-20T10:30:20.290Z,5.00
2023-05-20T10:32:59.939Z,3.67
2023-05-20T10:35:28.767Z,6.00
2023-05-20T10:38:10.184Z,4.00
2023-05-20T10:40:38.243Z,4.00
2023-05-20T10:43:12.752Z,5.00
2023-05-20T10:46:10.473Z,5.00
2023-05-20T10:48:45.507Z,5.00
2023-05-20T10:51:13.882Z,4.00
2023-05-20T10:53:41.623Z,5.00
2023-05-20T10:56:23.327Z,5.00
2023-05-20T10:58:52.484Z,4.00
2023-05-20T11:01:23.773Z,4.00
2023-05-20T11:03:53.069Z,4.50
2023-05-20T11:06:20.172Z,5.50
2023-05-20T11:08:46.914Z,4.00
2023-05-20T11:11:15.263Z,4.50
2023-05-20T11:13:42.173Z,6.00
2023-05-20T11:16:09.899Z,5.00
2023-05-20T11:18:38.135Z,5.00
2023-05-20T11:21:04.740Z,5.00
2023-05-20T11:23:31.495Z,6.00
2023-05-20T11:25:59.696Z,6.00
2023-05-20T11:28:26.772Z,6.50
2023-05-20T11:30:53.482Z,4.67
2023-05-20T11:33:22.200Z,5.00
2023-05-20T11:35:50.844Z,3.00
2023-05-20T11:38:21.015Z,2.00
2023-05-20T11:40:55.135Z,7.00
2023-05-20T11:43:23.485Z,5.00
2023-05-20T11:45:54.745Z,5.67
2023-05-20T11:48:23.368Z,4.50
2023-05-20T11:50:50.427Z,5.00
2023-05-20T11:53:18.440Z,5.00
2023-05-20T11:55:54.299Z,3.50
2023-05-20T11:58:24.140Z,7.00
2023-05-20T12:00:55.123Z,7.00
2023-05-20T12:03:27.841Z,7.00
2023-05-20T12:05:54.943Z,5.00
2023-05-20T12:08:22.466Z,4.25
2023-05-20T12:10:50.397Z,5.00
2023-05-20T12:13:18.618Z,5.00
2023-05-20T12:15:45.288Z,6.00
2023-05-20T12:18:13.212Z,6.00
2023-05-20T12:20:39.974Z,5.50
2023-05-20T12:23:06.567Z,6.00
2023-05-20T12:25:34.472Z,5.00
2023-05-20T12:28:01.422Z,4.50
2023-05-20T12:30:28.134Z,4.75
2023-05-20T12:32:56.563Z,6.00
2023-05-20T12:35:36.761Z,8.00
2023-05-20T12:38:05.417Z,8.50
2023-05-20T12:40:32.873Z,8.00
2023-05-20T12:43:00.883Z,8.00
2023-05-20T12:45:28.883Z,6.00
2023-05-20T12:47:55.926Z,9.00
2023-05-20T12:50:23.619Z,8.00
2023-05-20T12:52:51.567Z,7.00
2023-05-20T12:55:18.266Z,8.00
2023-05-20T12:57:46.038Z,7.00
2023-05-20T13:00:14.581Z,8.00
2023-05-20T13:02:41.654Z,7.00
2023-05-20T13:05:08.654Z,7.00
2023-05-20T13:07:37.368Z,6.00
2023-05-20T13:10:05.886Z,7.50
2023-05-20T13:12:34.858Z,7.00
2023-05-20T13:15:03.865Z,6.00
2023-05-20T13:17:31.312Z,7.00
2023-05-20T13:19:57.989Z,7.00
2023-05-20T13:22:26.013Z,6.00
2023-05-20T13:24:52.578Z,6.00
2023-05-20T13:27:19.128Z,6.00
2023-05-20T13:29:47.236Z,5.00
2023-05-20T13:32:13.867Z,6.50
2023-05-20T13:34:40.612Z,6.00
2023-05-20T13:37:08.552Z,5.50
2023-05-20T13:39:35.911Z,5.00
2023-05-20T13:42:03.680Z,5.25
2023-05-20T13:44:32.649Z,4.50
2023-05-20T13:46:59.786Z,5.00
2023-05-20T13:49:26.466Z,5.00
2023-05-20T13:51:54.429Z,6.00
2023-05-20T13:54:21.357Z,7.00
2023-05-20T13:56:48.155Z,5.00
2023-05-20T13:59:16.068Z,4.00
2023-05-20T14:01:44.625Z,6.00
2023-05-20T14:04:12.032Z,5.00
2023-05-20T14:06:39.995Z,5.00
2023-05-20T14:09:08.457Z,5.00
2023-05-20T14:11:35.457Z,5.50
2023-05-20T14:14:04.425Z,5.00
2023-05-20T14:16:31.970Z,4.00
2023-05-20T14:18:58.741Z,4.00
2023-05-20T14:21:26.601Z,4.00
2023-05-20T14:23:53.505Z,4.00
2023-05-20T14:26:21.226Z,4.00
2023-05-20T14:28:49.638Z,5.00
2023-05-20T14:31:16.639Z,5.00
2023-05-20T14:33:43.358Z,4.00
2023-05-20T14:36:11.457Z,5.00
2023-05-20T14:38:38.280Z,4.00
2023-05-20T14:41:05.570Z,3.75
2023-05-20T14:43:33.814Z,4.00
2023-05-20T14:46:01.538Z,4.00
2023-05-20T14:48:28.443Z,4.00
2023-05-20T14:50:56.488Z,4.50
2023-05-20T14:53:23.596Z,3.50
2023-05-20T14:55:50.171Z,3.25
2023-05-20T14:58:18.074Z,4.00
2023-05-20T15:00:44.728Z,3.00
2023-05-20T15:03:11.702Z,4.50
2023-05-20T15:05:40.641Z,5.00
2023-05-20T15:08:07.237Z,3.33
2023-05-20T15:10:34.120Z,4.00
2023-05-20T15:13:02.245Z,4.00
2023-05-20T15:15:28.922Z,3.00
2023-05-20T15:17:55.987Z,3.00
2023-05-20T15:20:24.249Z,3.00
2023-05-20T15:22:51.020Z,3.50
2023-05-20T15:25:18.038Z,5.00
2023-05-20T15:27:45.902Z,4.00
2023-05-20T15:30:13.291Z,3.00
2023-05-20T15:32:40.781Z,3.75
2023-05-20T15:35:08.979Z,5.00
2023-05-20T15:37:36.145Z,4.00
2023-05-20T15:40:03.910Z,4.00
2023-05-20T15:42:31.907Z,4.00
2023-05-20T15:44:58.532Z,3.00
2023-05-20T15:47:25.632Z,4.00
2023-05-20T15:49:53.940Z,4.00
2023-05-20T15:52:20.676Z,4.00
2023-05-20T15:54:47.383Z,3.33
2023-05-20T15:57:15.432Z,3.50
2023-05-20T15:59:42.071Z,4.00
2023-05-20T16:02:08.764Z,3.00
2023-05-20T16:04:36.692Z,3.50
2023-05-20T16:07:03.574Z,4.00
2023-05-20T16:09:30.594Z,4.00
2023-05-20T16:11:58.872Z,3.50
2023-05-20T16:14:25.515Z,4.00
2023-05-20T16:16:52.098Z,4.00
2023-05-20T16:19:20.143Z,4.00
2023-05-20T16:21:47.013Z,3.00
2023-05-20T16:24:14.731Z,4.50
2023-05-20T16:26:42.694Z,3.00
2023-05-20T16:29:09.234Z,2.50
2023-05-20T16:31:35.967Z,2.75
2023-05-20T16:34:04.298Z,3.00
2023-05-20T16:36:31.206Z,3.00
2023-05-20T16:38:58.161Z,3.50
2023-05-20T16:41:26.360Z,3.00
2023-05-20T16:43:53.326Z,3.00
2023-05-20T16:46:20.085Z,4.00
2023-05-20T16:48:48.157Z,3.00
2023-05-20T16:51:14.831Z,3.00
2023-05-20T16:53:41.547Z,3.50
2023-05-20T16:56:09.920Z,3.00
2023-05-20T16:58:36.712Z,1.00
2023-05-20T17:01:03.389Z,4.00
2023-05-20T17:03:31.317Z,2.50
2023-05-20T17:05:57.898Z,2.00
2023-05-20T17:08:24.468Z,3.00
2023-05-20T17:10:54.213Z,2.50
2023-05-20T17:13:21.180Z,4.00
2023-05-20T17:15:48.264Z,4.00
2023-05-20T17:18:16.587Z,2.50
2023-05-20T17:20:43.462Z,4.00
2023-05-20T17:23:10.501Z,3.00
2023-05-20T17:25:38.489Z,3.00
2023-05-20T17:28:05.490Z,3.00
2023-05-20T17:30:32.138Z,2.75
2023-05-20T17:33:00.633Z,3.00
2023-05-20T17:35:27.551Z,3.00
2023-05-20T17:37:54.586Z,2.75
2023-05-20T17:40:22.649Z,3.00
2023-05-20T17:42:49.434Z,3.00
2023-05-20T17:45:16.211Z,3.00
2023-05-20T17:47:44.107Z,3.00
2023-05-20T17:50:10.893Z,3.00
2023-05-20T17:52:37.607Z,3.75
2023-05-20T17:55:06.074Z,3.00
2023-05-20T17:57:33.204Z,2.00
2023-05-20T18:00:00.175Z,2.75
2023-05-20T18:02:28.274Z,3.00
2023-05-20T18:04:55.314Z,3.00
2023-05-20T18:07:22.132Z,3.00
2023-05-20T18:09:50.347Z,4.00
2023-05-20T18:12:17.057Z,2.00
2023-05-20T18:14:43.665Z,2.00
2023-05-20T18:17:11.902Z,3.00
2023-05-20T18:19:38.555Z,1.00
2023-05-20T18:22:06.682Z,2.75
2023-05-20T18:24:34.774Z,4.00
2023-05-20T18:27:01.793Z,3.00
2023-05-20T18:29:28.493Z,4.00
2023-05-20T18:31:56.472Z,3.00
2023-05-20T18:34:23.186Z,3.00
2023-05-20T18:36:50.073Z,4.00
2023-05-20T18:39:21.102Z,4.00
2023-05-20T18:41:47.812Z,4.00
2023-05-20T18:44:17.773Z,4.00
2023-05-20T18:46:44.934Z,3.00
2023-05-20T18:49:11.724Z,3.50
2023-05-20T18:51:39.865Z,3.00
2023-05-20T18:54:06.697Z,3.00
2023-05-20T18:56:33.571Z,3.00
2023-05-20T18:59:01.725Z,3.00
2023-05-20T19:01:28.774Z,3.00
2023-05-20T19:03:55.666Z,4.00
2023-05-20T19:06:24.097Z,3.00
2023-05-20T19:08:50.862Z,3.00
2023-05-20T19:11:17.582Z,3.00
2023-05-20T19:13:45.721Z,2.00
2023-05-20T19:16:12.446Z,3.50
2023-05-20T19:18:39.175Z,3.67
2023-05-20T19:21:07.123Z,3.00
2023-05-20T19:23:33.836Z,4.00
2023-05-20T19:26:00.749Z,3.00
2023-05-20T19:28:28.569Z,3.50
2023-05-20T19:30:55.155Z,2.00
2023-05-20T19:33:22.034Z,3.00
2023-05-20T19:35:50.389Z,3.50
2023-05-20T19:38:17.059Z,2.50
2023-05-20T19:40:44.096Z,2.00
2023-05-20T19:43:12.061Z,3.00
2023-05-20T19:45:39.289Z,3.00
2023-05-20T19:48:06.451Z,2.00
2023-05-20T19:50:34.498Z,3.00
2023-05-20T19:53:05.822Z,4.00
2023-05-20T19:55:34.821Z,3.00
2023-05-20T19:58:01.769Z,2.25
2023-05-20T20:00:29.314Z,3.00
2023-05-20T20:02:58.661Z,3.00
2023-05-20T20:05:26.055Z,3.00
2023-05-20T20:07:52.896Z,3.00
2023-05-20T20:10:20.907Z,2.50
2023-05-20T20:12:47.699Z,3.00
2023-05-20T20:15:14.261Z,2.67
2023-05-20T20:17:46.178Z,2.50
2023-05-20T20:20:13.405Z,4.00
2023-05-20T20:22:41.581Z,2.50
2023-05-20T20:25:08.356Z,2.00
2023-05-20T20:27:35.331Z,3.00
2023-05-20T20:30:03.587Z,3.00
2023-05-20T20:32:30.326Z,3.00
2023-05-20T20:34:57.390Z,3.00
2023-05-20T20:37:26.286Z,4.00
2023-05-20T20:39:54.010Z,3.00
2023-05-20T20:42:23.584Z,3.25
2023-05-20T20:44:51.945Z,3.00
2023-05-20T20:47:18.630Z,3.00
2023-05-20T20:49:45.296Z,3.50
2023-05-20T20:52:13.372Z,3.50
2023-05-20T20:54:42.771Z,4.00
2023-05-20T20:57:13.211Z,3.00
2023-05-20T20:59:47.221Z,1.00
2023-05-20T21:02:15.154Z,3.00
2023-05-20T21:04:42.425Z,2.00
2023-05-20T21:07:09.178Z,4.00
2023-05-20T21:09:37.035Z,3.00
2023-05-20T21:12:06.031Z,3.00
2023-05-20T21:14:32.851Z,3.25
2023-05-20T21:17:01.051Z,3.00
2023-05-20T21:19:29.487Z,4.00
2023-05-20T21:21:56.183Z,3.00
2023-05-20T21:24:24.218Z,4.00
2023-05-20T21:26:50.974Z,4.00
2023-05-20T21:29:17.527Z,3.00
2023-05-20T21:31:45.478Z,4.00
2023-05-20T21:34:12.238Z,3.00
2023-05-20T21:36:38.799Z,4.00
2023-05-20T21:39:06.755Z,3.00
2023-05-20T21:41:33.696Z,4.00
2023-05-20T21:44:00.390Z,3.00
2023-05-20T21:46:28.502Z,5.00
2023-05-20T21:48:55.407Z,4.00
2023-05-20T21:51:22.177Z,4.00
2023-05-20T21:53:50.046Z,4.00
2023-05-20T21:56:16.882Z,2.00
2023-05-20T21:58:43.529Z,3.00
2023-05-20T22:01:11.364Z,4.00
2023-05-20T22:03:39.307Z,4.00
2023-05-20T22:06:05.952Z,3.00
2023-05-20T22:08:34.271Z,3.67
2023-05-20T22:11:04.975Z,2.00
2023-05-20T22:13:33.733Z,4.00
2023-05-20T22:16:01.453Z,4.00
2023-05-20T22:18:28.810Z,3.00
2023-05-20T22:21:00.488Z,3.00
2023-05-20T22:23:27.418Z,4.00
2023-05-20T22:25:55.570Z,4.00
2023-05-20T22:28:23.191Z,4.00
2023-05-20T22:30:50.786Z,4.00
2023-05-20T22:33:18.980Z,3.50
2023-05-20T22:35:45.674Z,4.00
2023-05-20T22:38:12.468Z,0.67
2023-05-20T22:40:40.514Z,2.50
2023-05-20T22:43:07.201Z,3.00
2023-05-20T22:45:34.055Z,3.00
2023-05-20T22:48:03.121Z,3.00
2023-05-20T22:50:30.442Z,3.00
2023-05-20T22:52:57.088Z,4.00
2023-05-20T22:55:25.101Z,2.50
2023-05-20T22:57:51.750Z,3.00
2023-05-20T23:00:18.785Z,1.00
2023-05-20T23:02:48.969Z,2.50
2023-05-20T23:05:15.805Z,4.00
2023-05-20T23:07:42.498Z,3.25
2023-05-20T23:10:10.431Z,3.00
2023-05-20T23:12:37.229Z,3.00
2023-05-20T23:15:04.072Z,3.67
2023-05-20T23:17:32.187Z,3.00
2023-05-20T23:19:59.251Z,3.00
2023-05-20T23:22:26.274Z,4.00
2023-05-20T23:24:54.236Z,4.00
2023-05-20T23:27:20.806Z,3.00
2023-05-20T23:29:47.500Z,3.00
2023-05-20T23:32:15.727Z,3.00
2023-05-20T23:34:42.907Z,2.00
2023-05-20T23:37:09.862Z,2.00
2023-05-20T23:39:38.154Z,3.50
2023-05-20T23:42:04.797Z,3.00
2023-05-20T23:44:31.447Z,3.00
2023-05-20T23:47:00.369Z,3.00
2023-05-20T23:49:27.330Z,3.00
2023-05-20T23:51:53.916Z,4.00
2023-05-20T23:54:22.193Z,4.00
2023-05-20T23:56:48.813Z,3.00
2023-05-20T23:59:15.768Z,4.00
